createdAt,value
2023-02-07T00:02:17.888Z,-5.40
2023-02-07T00:05:24.427Z,-5.42
2023-02-07T00:08:27.019Z,-5.35
2023-02-07T00:11:32.963Z,-5.26
2023-02-07T00:14:38.514Z,-5.23
2023-02-07T00:17:42.331Z,-5.33
2023-02-07T00:20:46.004Z,-5.49
2023-02-07T00:23:52.607Z,-5.53
2023-02-07T00:26:57.349Z,-5.69
2023-02-07T00:30:01.980Z,-5.80
2023-02-07T00:33:06.609Z,-5.91
2023-02-07T00:36:16.142Z,-5.95
2023-02-07T00:39:26.781Z,-5.90
2023-02-07T00:42:38.118Z,-5.96
2023-02-07T00:45:44.934Z,-6.03
2023-02-07T00:48:56.504Z,-5.99
2023-02-07T00:51:59.565Z,-5.85
2023-02-07T00:55:13.299Z,-5.83
2023-02-07T00:58:20.210Z,-5.75
2023-02-07T01:01:30.122Z,-5.76
2023-02-07T01:04:33.767Z,-5.83
2023-02-07T01:07:49.224Z,-5.81
2023-02-07T01:11:03.713Z,-5.92
2023-02-07T01:14:09.234Z,-5.95
2023-02-07T01:17:18.373Z,-5.96
2023-02-07T01:20:26.044Z,-6.06
2023-02-07T01:23:31.513Z,-6.17
2023-02-07T01:26:34.904Z,-6.25
2023-02-07T01:29:38.174Z,-6.31
2023-02-07T01:32:41.399Z,-6.39
2023-02-07T01:35:52.576Z,-6.34
2023-02-07T01:39:03.153Z,-6.19
2023-02-07T01:42:07.988Z,-6.22
2023-02-07T01:45:21.281Z,-6.08
2023-02-07T01:48:41.521Z,-6.11
2023-02-07T01:51:52.147Z,-6.03
2023-02-07T01:55:00.810Z,-6.14
2023-02-07T01:58:08.676Z,-6.25
2023-02-07T02:01:14.906Z,-6.34
2023-02-07T02:04:19.463Z,-6.40
2023-02-07T02:07:33.327Z,-6.40
2023-02-07T02:10:55.679Z,-6.47
2023-02-07T02:14:22.949Z,-6.42
2023-02-07T02:17:47.585Z,-6.55
2023-02-07T02:21:16.032Z,-6.64
2023-02-07T02:24:36.562Z,-6.77
2023-02-07T02:27:48.346Z,-6.87
2023-02-07T02:31:01.008Z,-6.95
2023-02-07T02:34:09.168Z,-6.81
2023-02-07T02:37:38.369Z,-6.87
2023-02-07T02:40:58.357Z,-6.83
2023-02-07T02:44:29.093Z,-6.74
2023-02-07T02:47:35.688Z,-6.75
2023-02-07T02:50:40.093Z,-6.72
2023-02-07T02:53:52.709Z,-6.72
2023-02-07T02:57:13.111Z,-6.69
2023-02-07T03:00:37.107Z,-6.79
2023-02-07T03:03:59.961Z,-6.79
2023-02-07T03:07:03.357Z,-6.78
2023-02-07T03:10:25.492Z,-6.77
2023-02-07T03:13:39.346Z,-6.84
2023-02-07T03:16:51.138Z,-6.82
2023-02-07T03:20:06.329Z,-6.92
2023-02-07T03:23:11.508Z,-6.74
2023-02-07T03:26:17.038Z,-6.85
2023-02-07T03:29:27.450Z,-6.93
2023-02-07T03:32:44.688Z,-6.91
2023-02-07T03:35:56.782Z,-6.83
2023-02-07T03:39:04.479Z,-6.88
2023-02-07T03:42:19.237Z,-6.83
2023-02-07T03:45:24.169Z,-6.84
2023-02-07T03:48:29.569Z,-6.81
2023-02-07T03:51:34.282Z,-6.75
2023-02-07T03:54:43.779Z,-6.79
2023-02-07T03:57:48.989Z,-6.90
2023-02-07T04:00:56.341Z,-6.95
2023-02-07T04:04:01.883Z,-6.98
2023-02-07T04:07:05.189Z,-6.97
2023-02-07T04:10:12.495Z,-6.95
2023-02-07T04:13:18.875Z,-6.82
2023-02-07T04:16:21.975Z,-6.77
2023-02-07T04:19:28.822Z,-6.73
2023-02-07T04:22:34.468Z,-6.85
2023-02-07T04:25:40.738Z,-6.91
2023-02-07T04:28:43.061Z,-6.94
2023-02-07T04:31:47.153Z,-7.00
2023-02-07T04:34:51.254Z,-6.99
2023-02-07T04:37:54.556Z,-7.05
2023-02-07T04:41:10.119Z,-7.07
2023-02-07T04:44:13.216Z,-7.10
2023-02-07T04:47:18.290Z,-7.11
2023-02-07T04:50:26.644Z,-7.15
2023-02-07T04:53:31.515Z,-7.06
2023-02-07T04:56:36.967Z,-6.96
2023-02-07T04:59:46.394Z,-6.92
2023-02-07T05:02:49.180Z,-6.98
2023-02-07T05:05:54.349Z,-6.88
2023-02-07T05:08:57.413Z,-6.89
2023-02-07T05:12:01.630Z,-6.90
2023-02-07T05:15:06.671Z,-6.93
2023-02-07T05:18:10.066Z,-6.94
2023-02-07T05:21:12.852Z,-6.93
2023-02-07T05:24:18.586Z,-6.96
2023-02-07T05:27:21.907Z,-6.93
2023-02-07T05:30:26.188Z,-6.91
2023-02-07T05:33:31.365Z,-6.87
2023-02-07T05:36:34.760Z,-6.93
2023-02-07T05:39:38.363Z,-6.96
2023-02-07T05:42:42.272Z,-7.00
2023-02-07T05:45:48.167Z,-7.01
2023-02-07T05:48:54.599Z,-6.98
2023-02-07T05:52:02.096Z,-7.00
2023-02-07T05:55:07.644Z,-7.03
2023-02-07T05:58:13.500Z,-7.00
2023-02-07T06:01:16.909Z,-6.93
2023-02-07T06:04:22.854Z,-6.89
2023-02-07T06:07:29.696Z,-6.73
2023-02-07T06:10:37.637Z,-6.71
2023-02-07T06:13:43.829Z,-6.55
2023-02-07T06:16:46.607Z,-6.53
2023-02-07T06:19:53.620Z,-6.54
2023-02-07T06:22:56.777Z,-6.43
2023-02-07T06:25:59.954Z,-6.42
2023-02-07T06:29:07.462Z,-6.64
2023-02-07T06:32:12.002Z,-6.68
2023-02-07T06:35:15.171Z,-6.67
2023-02-07T06:38:21.848Z,-6.49
2023-02-07T06:41:27.430Z,-6.46
2023-02-07T06:44:30.866Z,-6.49
2023-02-07T06:47:36.295Z,-6.33
2023-02-07T06:50:39.283Z,-6.14
2023-02-07T06:53:44.367Z,-5.94
2023-02-07T06:56:47.664Z,-5.86
2023-02-07T06:59:55.852Z,-5.79
2023-02-07T07:03:05.071Z,-5.73
2023-02-07T07:06:13.583Z,-5.62
2023-02-07T07:09:16.317Z,-5.49
2023-02-07T07:12:22.926Z,-5.37
2023-02-07T07:15:33.869Z,-5.40
2023-02-07T07:18:41.910Z,-5.35
2023-02-07T07:21:51.416Z,-5.15
2023-02-07T07:24:57.784Z,-5.12
2023-02-07T07:28:08.898Z,-5.00
2023-02-07T07:31:15.875Z,-4.87
2023-02-07T07:34:30.422Z,-4.77
2023-02-07T07:37:41.000Z,-4.66
2023-02-07T07:40:45.596Z,-4.41
2023-02-07T07:43:49.373Z,-4.15
2023-02-07T07:46:55.707Z,-3.96
2023-02-07T07:50:00.717Z,-3.67
2023-02-07T07:53:05.021Z,-3.44
2023-02-07T07:56:10.773Z,-3.23
2023-02-07T07:59:23.661Z,-2.89
2023-02-07T08:02:27.921Z,-2.69
2023-02-07T08:05:31.436Z,-2.44
2023-02-07T08:08:37.202Z,-2.27
2023-02-07T08:11:40.192Z,-2.24
2023-02-07T08:14:43.077Z,-2.00
2023-02-07T08:17:47.822Z,-1.87
2023-02-07T08:20:50.638Z,-1.82
2023-02-07T08:23:56.338Z,-1.78
2023-02-07T08:26:59.618Z,-1.68
2023-02-07T08:30:03.624Z,-1.61
2023-02-07T08:33:13.172Z,-1.43
2023-02-07T08:36:16.317Z,-1.33
2023-02-07T08:39:18.839Z,-1.38
2023-02-07T08:42:24.916Z,-1.48
2023-02-07T08:45:32.312Z,-1.27
2023-02-07T08:48:37.640Z,-1.18
2023-02-07T08:51:42.198Z,-1.09
2023-02-07T08:54:49.324Z,-1.35
2023-02-07T08:57:53.982Z,-1.47
2023-02-07T09:01:00.622Z,-1.57
2023-02-07T09:04:12.247Z,-1.34
2023-02-07T09:07:15.469Z,-1.10
2023-02-07T09:10:19.250Z,-1.19
2023-02-07T09:13:23.162Z,-1.23
2023-02-07T09:16:31.426Z,-1.36
2023-02-07T09:19:34.376Z,-1.11
2023-02-07T09:23:00.134Z,-0.76
2023-02-07T09:26:08.489Z,-0.64
2023-02-07T09:29:14.688Z,-0.46
2023-02-07T09:32:24.222Z,-0.50
2023-02-07T09:35:31.603Z,-0.30
2023-02-07T09:38:38.481Z,-0.18
2023-02-07T09:42:05.568Z,-0.20
2023-02-07T09:45:13.148Z,-0.10
2023-02-07T09:48:23.596Z,-0.02
2023-02-07T09:51:29.557Z,-0.24
2023-02-07T09:54:38.455Z,0.14
2023-02-07T09:57:49.936Z,0.30
2023-02-07T10:01:05.095Z,0.26
2023-02-07T10:04:13.739Z,0.52
2023-02-07T10:07:16.743Z,0.42
2023-02-07T10:10:24.861Z,0.47
2023-02-07T10:13:36.767Z,0.58
2023-02-07T10:17:03.588Z,0.86
2023-02-07T10:20:12.847Z,0.83
2023-02-07T10:23:32.607Z,0.86
2023-02-07T10:27:01.124Z,0.91
2023-02-07T10:30:21.926Z,1.06
2023-02-07T10:33:29.746Z,1.24
2023-02-07T10:36:36.883Z,1.29
2023-02-07T10:39:41.687Z,1.36
2023-02-07T10:42:55.470Z,1.44
2023-02-07T10:46:06.523Z,1.26
2023-02-07T10:49:24.861Z,1.16
2023-02-07T10:52:37.533Z,1.23
2023-02-07T10:55:44.720Z,1.20
2023-02-07T10:58:49.204Z,1.26
2023-02-07T11:02:11.854Z,1.27
2023-02-07T11:05:17.421Z,0.94
2023-02-07T11:08:24.089Z,0.76
2023-02-07T11:11:37.919Z,0.98
2023-02-07T11:14:45.626Z,1.20
2023-02-07T11:17:59.041Z,1.27
2023-02-07T11:21:04.106Z,1.28
2023-02-07T11:24:09.412Z,1.48
2023-02-07T11:27:21.169Z,1.60
2023-02-07T11:30:28.641Z,1.46
2023-02-07T11:33:35.718Z,1.29
2023-02-07T11:36:39.770Z,1.31
2023-02-07T11:39:44.349Z,1.51
2023-02-07T11:42:51.680Z,1.60
2023-02-07T11:46:00.354Z,1.65
2023-02-07T11:49:05.084Z,1.44
2023-02-07T11:52:08.178Z,1.47
2023-02-07T11:55:17.966Z,1.42
2023-02-07T11:58:25.571Z,1.34
2023-02-07T12:01:31.274Z,1.47
2023-02-07T12:04:35.619Z,1.59
2023-02-07T12:07:41.500Z,1.68
2023-02-07T12:10:48.452Z,1.50
2023-02-07T12:13:56.852Z,1.48
2023-02-07T12:17:02.068Z,1.36
2023-02-07T12:20:17.396Z,1.26
2023-02-07T12:23:41.738Z,1.20
2023-02-07T12:26:53.915Z,1.35
2023-02-07T12:30:12.432Z,1.50
2023-02-07T12:33:22.989Z,1.64
2023-02-07T12:36:36.289Z,1.54
2023-02-07T12:39:58.504Z,1.59
2023-02-07T12:43:14.439Z,1.46
2023-02-07T12:46:32.755Z,1.56
2023-02-07T12:50:01.794Z,1.52
2023-02-07T12:53:24.130Z,1.45
2023-02-07T12:56:36.092Z,1.25
2023-02-07T12:59:45.261Z,1.51
2023-02-07T13:03:06.948Z,1.59
2023-02-07T13:06:12.425Z,1.57
2023-02-07T13:09:29.483Z,1.70
2023-02-07T13:12:52.099Z,1.85
2023-02-07T13:16:01.403Z,1.67
2023-02-07T13:19:13.805Z,1.46
2023-02-07T13:22:28.613Z,1.59
2023-02-07T13:25:35.051Z,1.45
2023-02-07T13:28:48.150Z,1.48
2023-02-07T13:31:57.384Z,1.52
2023-02-07T13:35:33.765Z,1.42
2023-02-07T13:38:47.453Z,1.50
2023-02-07T13:41:56.594Z,1.50
2023-02-07T13:45:21.853Z,1.43
2023-02-07T13:48:28.225Z,1.45
2023-02-07T13:51:53.771Z,1.40
2023-02-07T13:55:01.089Z,1.21
2023-02-07T13:58:23.329Z,1.21
2023-02-07T14:01:30.187Z,1.26
2023-02-07T14:04:47.524Z,1.10
2023-02-07T14:07:56.333Z,0.95
2023-02-07T14:11:03.540Z,0.87
2023-02-07T14:14:24.354Z,0.99
2023-02-07T14:17:30.995Z,0.84
2023-02-07T14:20:41.485Z,0.92
2023-02-07T14:24:07.509Z,0.97
2023-02-07T14:27:29.343Z,0.94
2023-02-07T14:30:52.440Z,1.03
2023-02-07T14:34:15.932Z,0.93
2023-02-07T14:37:24.543Z,0.93
2023-02-07T14:40:36.487Z,0.88
2023-02-07T14:43:59.695Z,0.84
2023-02-07T14:47:18.204Z,0.84
2023-02-07T14:50:23.399Z,0.70
2023-02-07T14:53:26.936Z,0.67
2023-02-07T14:56:38.544Z,0.62
2023-02-07T14:59:46.142Z,0.57
2023-02-07T15:02:52.737Z,0.47
2023-02-07T15:05:59.912Z,0.37
2023-02-07T15:09:03.000Z,0.36
2023-02-07T15:12:18.696Z,0.33
2023-02-07T15:15:30.608Z,0.28
2023-02-07T15:18:36.032Z,0.18
2023-02-07T15:21:40.957Z,0.05
2023-02-07T15:24:51.343Z,-0.08
2023-02-07T15:28:02.444Z,-0.26
2023-02-07T15:31:07.846Z,-0.27
2023-02-07T15:34:18.884Z,-0.35
2023-02-07T15:37:26.256Z,-0.40
2023-02-07T15:40:28.997Z,-0.58
2023-02-07T15:43:34.365Z,-0.68
2023-02-07T15:46:51.899Z,-0.77
2023-02-07T15:50:21.801Z,-0.83
2023-02-07T15:53:27.435Z,-0.98
2023-02-07T15:56:31.253Z,-1.11
2023-02-07T15:59:40.238Z,-1.21
2023-02-07T16:02:54.313Z,-1.21
2023-02-07T16:06:16.314Z,-1.30
2023-02-07T16:09:35.599Z,-1.36
2023-02-07T16:12:53.423Z,-1.44
2023-02-07T16:15:58.194Z,-1.53
2023-02-07T16:19:16.165Z,-1.59
2023-02-07T16:22:20.829Z,-1.62
2023-02-07T16:25:25.881Z,-1.65
2023-02-07T16:28:28.589Z,-1.68
2023-02-07T16:31:32.372Z,-1.71
2023-02-07T16:34:35.178Z,-1.80
2023-02-07T16:37:37.978Z,-1.81
2023-02-07T16:40:42.295Z,-1.88
2023-02-07T16:43:46.914Z,-1.90
2023-02-07T16:46:49.703Z,-1.90
2023-02-07T16:49:53.478Z,-1.88
2023-02-07T16:53:00.029Z,-1.91
2023-02-07T16:56:02.992Z,-1.96
2023-02-07T16:59:08.883Z,-2.02
2023-02-07T17:02:16.447Z,-2.14
2023-02-07T17:05:19.853Z,-2.10
2023-02-07T17:08:27.886Z,-2.19
2023-02-07T17:11:31.178Z,-2.34
2023-02-07T17:14:35.958Z,-2.42
2023-02-07T17:17:38.838Z,-2.52
2023-02-07T17:20:41.856Z,-2.46
2023-02-07T17:23:47.754Z,-2.46
2023-02-07T17:26:53.571Z,-2.41
2023-02-07T17:29:56.588Z,-2.46
2023-02-07T17:32:59.476Z,-2.50
2023-02-07T17:36:02.919Z,-2.43
2023-02-07T17:39:07.628Z,-2.42
2023-02-07T17:42:11.139Z,-2.44
2023-02-07T17:45:14.338Z,-2.53
2023-02-07T17:48:17.522Z,-2.53
2023-02-07T17:51:24.509Z,-2.58
2023-02-07T17:54:28.312Z,-2.55
2023-02-07T17:57:31.284Z,-2.59
2023-02-07T18:00:35.485Z,-2.62
2023-02-07T18:03:38.203Z,-2.70
2023-02-07T18:06:41.463Z,-2.68
2023-02-07T18:09:44.553Z,-2.74
2023-02-07T18:12:47.287Z,-2.75
2023-02-07T18:15:49.646Z,-2.74
2023-02-07T18:18:54.576Z,-2.83
2023-02-07T18:21:57.767Z,-2.89
2023-02-07T18:25:00.522Z,-2.92
2023-02-07T18:28:04.657Z,-2.99
2023-02-07T18:31:15.494Z,-3.03
2023-02-07T18:34:18.907Z,-3.06
2023-02-07T18:37:22.463Z,-3.11
2023-02-07T18:40:25.193Z,-3.19
2023-02-07T18:43:28.105Z,-3.18
2023-02-07T18:46:32.958Z,-3.07
2023-02-07T18:49:36.549Z,-3.04
2023-02-07T18:52:40.253Z,-3.03
2023-02-07T18:55:45.096Z,-3.05
2023-02-07T18:58:48.056Z,-3.06
2023-02-07T19:01:54.137Z,-3.18
2023-02-07T19:04:57.944Z,-3.21
2023-02-07T19:08:01.575Z,-3.21
2023-02-07T19:11:09.353Z,-3.12
2023-02-07T19:14:18.791Z,-3.10
2023-02-07T19:17:25.124Z,-3.20
2023-02-07T19:20:28.010Z,-3.19
2023-02-07T19:23:31.309Z,-3.22
2023-02-07T19:26:35.011Z,-3.29
2023-02-07T19:29:39.964Z,-3.31
2023-02-07T19:32:44.785Z,-3.32
2023-02-07T19:35:49.407Z,-3.29
2023-02-07T19:38:56.926Z,-3.31
2023-02-07T19:42:01.739Z,-3.39
2023-02-07T19:45:09.553Z,-3.37
2023-02-07T19:48:15.064Z,-3.43
2023-02-07T19:51:26.783Z,-3.49
2023-02-07T19:54:30.313Z,-3.60
2023-02-07T19:57:33.881Z,-3.71
2023-02-07T20:00:39.625Z,-3.82
2023-02-07T20:03:46.584Z,-3.66
2023-02-07T20:06:50.833Z,-3.73
2023-02-07T20:09:58.902Z,-3.86
2023-02-07T20:13:03.984Z,-3.93
2023-02-07T20:16:11.362Z,-3.90
2023-02-07T20:19:23.230Z,-3.93
2023-02-07T20:22:28.417Z,-3.75
2023-02-07T20:25:38.686Z,-3.68
2023-02-07T20:28:45.263Z,-3.53
2023-02-07T20:31:50.126Z,-3.51
2023-02-07T20:34:55.537Z,-3.53
2023-02-07T20:38:01.214Z,-3.48
2023-02-07T20:41:12.063Z,-3.51
2023-02-07T20:44:16.998Z,-3.48
2023-02-07T20:47:21.518Z,-3.51
2023-02-07T20:50:30.559Z,-3.61
2023-02-07T20:53:37.750Z,-3.56
2023-02-07T20:56:42.175Z,-3.63
2023-02-07T20:59:48.854Z,-3.62
2023-02-07T21:02:51.504Z,-3.61
2023-02-07T21:05:55.017Z,-3.63
2023-02-07T21:09:02.032Z,-3.71
2023-02-07T21:12:08.693Z,-3.65
2023-02-07T21:15:17.010Z,-3.53
2023-02-07T21:18:21.935Z,-3.57
2023-02-07T21:21:31.772Z,-3.52
2023-02-07T21:24:35.578Z,-3.52
2023-02-07T21:27:40.922Z,-3.50
2023-02-07T21:30:46.612Z,-3.49
2023-02-07T21:33:52.530Z,-3.53
2023-02-07T21:36:57.976Z,-3.60
2023-02-07T21:40:03.117Z,-3.66
2023-02-07T21:43:12.353Z,-3.66
2023-02-07T21:46:26.444Z,-3.76
2023-02-07T21:49:29.867Z,-3.81
2023-02-07T21:52:33.249Z,-3.67
2023-02-07T21:55:36.701Z,-3.66
2023-02-07T21:58:44.213Z,-3.68
2023-02-07T22:01:47.832Z,-3.70
2023-02-07T22:04:50.687Z,-3.76
2023-02-07T22:07:53.566Z,-3.70
2023-02-07T22:10:57.794Z,-3.71
2023-02-07T22:14:05.090Z,-3.73
2023-02-07T22:17:12.603Z,-3.81
2023-02-07T22:20:19.432Z,-3.85
2023-02-07T22:23:27.789Z,-3.91
2023-02-07T22:26:31.916Z,-3.91
2023-02-07T22:29:34.614Z,-3.84
2023-02-07T22:32:44.327Z,-3.80
2023-02-07T22:35:50.889Z,-3.82
2023-02-07T22:38:58.913Z,-3.85
2023-02-07T22:42:05.190Z,-3.79
2023-02-07T22:45:09.892Z,-3.84
2023-02-07T22:48:28.584Z,-3.87
2023-02-07T22:51:35.131Z,-3.85
2023-02-07T22:54:41.895Z,-3.86
2023-02-07T22:57:51.976Z,-3.86
2023-02-07T23:00:55.334Z,-3.94
2023-02-07T23:03:58.520Z,-3.99
2023-02-07T23:07:04.506Z,-4.00
2023-02-07T23:10:10.483Z,-3.97
2023-02-07T23:13:17.353Z,-3.97
2023-02-07T23:16:22.172Z,-3.94
2023-02-07T23:19:24.877Z,-3.95
2023-02-07T23:22:32.767Z,-3.95
2023-02-07T23:25:36.072Z,-3.93
2023-02-07T23:28:42.652Z,-3.93
2023-02-07T23:31:46.902Z,-3.92
2023-02-07T23:34:50.606Z,-3.92
2023-02-07T23:37:54.156Z,-3.96
2023-02-07T23:41:00.323Z,-4.03
2023-02-07T23:44:07.051Z,-4.02
2023-02-07T23:47:12.496Z,-4.03
2023-02-07T23:50:20.051Z,-4.07
2023-02-07T23:53:33.270Z,-4.02
2023-02-07T23:56:40.477Z,-4.00
2023-02-07T23:59:43.965Z,-3.97
